Time;durP1;ratioP1;P1;durP2;ratioP2;P2;SDS_P1;SDS_P2;PMS_P1;PMS_P2;Temp;Humidity;BMP_temperature;BMP_pressure;BME280_temperature;BME280_humidity;BME280_pressure;Samples;Min_cycle;Max_cycle;Signal;HPM_P1;HPM_P2
2022/09/23 00:00:07;;;;;;;15.10;5.80;;;;;;;4.96;98.12;100505.92;104985;1271;72935;-78
2022/09/23 00:03:15;;;;;;;12.00;5.40;;;;;;;4.94;98.25;100503.39;105161;1271;59654;-76
2022/09/23 00:06:10;;;;;;;14.40;5.50;;;;;;;4.92;98.28;100506.47;104948;1271;62262;-76
2022/09/23 00:08:58;;;;;;;12.80;5.50;;;;;;;4.91;98.32;100506.52;105108;1271;72984;-76
2022/09/23 00:11:46;;;;;;;11.50;4.90;;;;;;;4.90;98.61;100507.98;104845;1270;66910;-77
2022/09/23 00:14:36;;;;;;;12.80;4.90;;;;;;;4.92;99.04;100510.69;105249;1271;72669;-76
2022/09/23 00:17:24;;;;;;;14.40;5.70;;;;;;;4.92;98.60;100508.05;105333;1271;59631;-78
2022/09/23 00:20:13;;;;;;;11.00;5.10;;;;;;;4.89;98.60;100507.83;105046;1271;60522;-77
2022/09/23 00:23:01;;;;;;;11.80;5.30;;;;;;;4.88;98.54;100506.14;104968;1271;72992;-76
2022/09/23 00:25:58;;;;;;;11.50;4.90;;;;;;;4.85;98.48;100498.52;105238;1271;68046;-75
2022/09/23 00:28:47;;;;;;;13.40;5.30;;;;;;;4.85;98.65;100501.17;104977;1271;72596;-76
2022/09/23 00:31:37;;;;;;;12.50;4.80;;;;;;;4.85;98.92;100499.61;104974;1271;59664;-75
2022/09/23 00:34:25;;;;;;;10.60;4.20;;;;;;;4.85;98.93;100497.50;105363;1271;61078;-76
2022/09/23 00:37:15;;;;;;;10.40;4.40;;;;;;;4.85;98.80;100495.54;105246;1271;72030;-76
2022/09/23 00:40:04;;;;;;;10.90;4.20;;;;;;;4.85;98.64;100498.38;105029;1271;69626;-74
2022/09/23 00:42:51;;;;;;;12.00;4.40;;;;;;;4.85;98.79;100501.90;105116;1271;72828;-73
2022/09/23 00:45:44;;;;;;;10.70;4.20;;;;;;;4.83;98.99;100499.16;104995;1271;59748;-74
2022/09/23 00:48:34;;;;;;;10.90;4.30;;;;;;;4.81;98.92;100496.47;105022;1271;60998;-75
2022/09/23 00:51:26;;;;;;;10.80;4.40;;;;;;;4.79;98.83;100493.38;104938;1271;72008;-75
2022/09/23 00:54:16;;;;;;;10.30;4.40;;;;;;;4.76;98.77;100491.55;105001;1271;67850;-75
2022/09/23 00:57:05;;;;;;;8.10;3.30;;;;;;;4.75;98.94;100490.88;105007;1271;71404;-76
2022/09/23 00:59:53;;;;;;;10.00;3.90;;;;;;;4.76;99.07;100486.11;105024;1271;59777;-76
2022/09/23 01:02:41;;;;;;;8.90;3.50;;;;;;;4.77;99.26;100480.78;105083;1271;59679;-76
2022/09/23 01:05:32;;;;;;;9.60;3.70;;;;;;;4.79;99.43;100474.04;104923;1271;73555;-77
2022/09/23 01:08:22;;;;;;;9.70;3.60;;;;;;;4.80;99.21;100474.86;105133;1271;66544;-75
2022/09/23 01:11:47;;;;;;;9.10;3.60;;;;;;;4.79;99.25;100475.42;105304;1271;171884;-76
2022/09/23 01:14:54;;;;;;;8.10;3.10;;;;;;;4.76;99.04;100478.20;105045;1271;59716;-77
2022/09/23 01:18:01;;;;;;;10.00;3.50;;;;;;;4.73;98.96;100476.57;105295;1271;59546;-75
2022/09/23 01:21:17;;;;;;;9.60;3.40;;;;;;;4.68;98.83;100473.33;105266;1271;73492;-77
2022/09/23 01:24:47;;;;;;;9.10;3.40;;;;;;;4.65;99.08;100472.39;104940;1271;67911;-77
2022/09/23 01:27:55;;;;;;;9.80;3.00;;;;;;;4.64;99.16;100472.45;105054;1271;71306;-76
2022/09/23 01:31:08;;;;;;;8.10;3.10;;;;;;;4.62;99.28;100470.09;105110;1271;59765;-78
2022/09/23 01:34:25;;;;;;;9.30;2.90;;;;;;;4.62;99.55;100470.42;104825;1271;59560;-76
2022/09/23 01:37:39;;;;;;;7.60;2.60;;;;;;;4.63;99.70;100468.48;104843;1271;73144;-77
2022/09/23 01:41:12;;;;;;;7.60;2.90;;;;;;;4.62;99.82;100466.58;105101;1274;68139;-77
2022/09/23 01:44:11;;;;;;;7.50;2.60;;;;;;;4.62;99.84;100463.96;104798;1274;73252;-76
2022/09/23 01:47:26;;;;;;;7.80;3.00;;;;;;;4.59;99.61;100460.89;104801;1274;59700;-76
2022/09/23 01:53:32;;;;;;;7.00;2.80;;;;;;;4.53;99.61;100462.39;104604;1272;73063;-77
2022/09/23 01:56:32;;;;;;;7.70;3.20;;;;;;;4.53;99.71;100464.15;105050;1274;68097;-76
2022/09/23 01:59:37;;;;;;;7.70;3.10;;;;;;;4.52;99.71;100465.25;104644;1274;71619;-76
2022/09/23 02:02:35;;;;;;;9.10;3.30;;;;;;;4.52;99.77;100467.73;104774;1274;59672;-76
2022/09/23 02:05:36;;;;;;;8.00;3.30;;;;;;;4.52;100.00;100468.06;104616;1274;59596;-78
2022/09/23 02:08:52;;;;;;;7.60;2.70;;;;;;;4.52;99.97;100466.14;104721;1274;73441;-77
2022/09/23 02:11:44;;;;;;;7.40;2.80;;;;;;;4.52;100.00;100459.96;104923;1271;68632;-77
2022/09/23 02:15:10;;;;;;;7.50;3.10;;;;;;;4.54;100.00;100460.96;105130;1271;71396;-78
2022/09/23 02:18:11;;;;;;;8.10;2.90;;;;;;;4.53;99.98;100463.10;105194;1271;59707;-78
2022/09/23 02:21:06;;;;;;;7.50;3.20;;;;;;;4.52;100.00;100459.09;105317;1271;59597;-77
2022/09/23 02:24:07;;;;;;;7.40;2.90;;;;;;;4.51;100.00;100459.67;105111;1271;72138;-78
2022/09/23 02:27:39;;;;;;;7.50;2.70;;;;;;;4.51;100.00;100461.61;105155;1271;66739;-77
2022/09/23 02:30:38;;;;;;;8.10;3.30;;;;;;;4.52;100.00;100458.56;104906;1271;72808;-78
2022/09/23 02:33:38;;;;;;;8.10;3.00;;;;;;;4.55;100.00;100458.45;104975;1271;59760;-76
2022/09/23 02:36:53;;;;;;;8.70;3.00;;;;;;;4.55;100.00;100456.47;105033;1270;60259;-77
2022/09/23 02:40:18;;;;;;;8.00;2.90;;;;;;;4.56;100.00;100451.35;105172;1271;73333;-79
2022/09/23 02:43:18;;;;;;;9.20;2.80;;;;;;;4.60;100.00;100451.84;105206;1271;67344;-76
2022/09/23 02:46:06;;;;;;;7.00;2.60;;;;;;;4.63;100.00;100451.06;105191;1271;72741;-78
2022/09/23 02:49:02;;;;;;;8.20;2.90;;;;;;;4.66;100.00;100448.24;105182;1271;59758;-74
2022/09/23 02:51:53;;;;;;;7.50;2.60;;;;;;;4.69;100.00;100450.08;105202;1271;60355;-80
2022/09/23 02:54:41;;;;;;;7.30;2.50;;;;;;;4.68;100.00;100447.98;104917;1274;71759;-79
2022/09/23 02:57:30;;;;;;;7.80;2.50;;;;;;;4.70;100.00;100447.36;104906;1271;65485;-76
2022/09/23 03:00:18;;;;;;;7.70;2.70;;;;;;;4.69;100.00;100444.77;105215;1271;72783;-80
2022/09/23 03:03:47;;;;;;;6.60;2.20;;;;;;;4.72;100.00;100445.02;104939;1271;60203;-79
2022/09/23 03:06:56;;;;;;;6.70;2.20;;;;;;;4.74;100.00;100439.11;105295;1271;59797;-77
2022/09/23 03:10:09;;;;;;;7.40;2.10;;;;;;;4.76;100.00;100436.34;104981;1271;71144;-78
2022/09/23 03:13:28;;;;;;;6.90;2.40;;;;;;;4.80;100.00;100426.69;105315;1271;68398;-78
2022/09/23 03:17:03;;;;;;;8.20;2.40;;;;;;;4.84;100.00;100421.79;104954;1271;73178;-78
2022/09/23 03:20:37;;;;;;;6.40;2.20;;;;;;;4.86;100.00;100418.67;105026;1279;59779;-79
2022/09/23 03:23:36;;;;;;;7.10;2.40;;;;;;;4.87;100.00;100416.16;104968;1285;59625;-78
2022/09/23 03:26:32;;;;;;;6.80;2.30;;;;;;;4.89;100.00;100411.29;103985;1285;71893;-79
2022/09/23 03:29:22;;;;;;;7.30;2.20;;;;;;;4.92;100.00;100409.91;103730;1285;66578;-77
2022/09/23 03:32:13;;;;;;;7.10;2.60;;;;;;;4.95;100.00;100412.42;103807;1285;71639;-77
2022/09/23 03:35:04;;;;;;;6.50;2.10;;;;;;;4.98;100.00;100408.23;103579;1285;59891;-76
2022/09/23 03:38:11;;;;;;;7.10;2.30;;;;;;;5.01;100.00;100405.13;103951;1285;59828;-76
2022/09/23 03:41:03;;;;;;;8.90;3.00;;;;;;;5.04;100.00;100406.00;103919;1285;73227;-78
2022/09/23 03:43:52;;;;;;;8.90;2.80;;;;;;;5.09;100.00;100402.44;103872;1285;67760;-78
2022/09/23 03:46:42;;;;;;;9.50;2.60;;;;;;;5.13;100.00;100400.83;103523;1285;72908;-78
2022/09/23 03:49:38;;;;;;;9.70;3.00;;;;;;;5.18;100.00;100398.84;103395;1287;59678;-78
2022/09/23 03:52:27;;;;;;;9.40;3.40;;;;;;;5.21;100.00;100397.26;103308;1288;60965;-76
2022/09/23 03:55:18;;;;;;;10.10;3.80;;;;;;;5.23;100.00;100396.61;103736;1284;73384;-74
2022/09/23 03:58:07;;;;;;;11.20;3.90;;;;;;;5.24;100.00;100391.81;103957;1282;66837;-74
2022/09/23 04:00:57;;;;;;;10.70;4.10;;;;;;;5.26;100.00;100389.77;104853;1274;71569;-76
2022/09/23 04:03:45;;;;;;;12.30;4.10;;;;;;;5.28;100.00;100388.81;104493;1274;59772;-74
2022/09/23 04:06:34;;;;;;;11.80;4.20;;;;;;;5.29;100.00;100387.34;104995;1274;62197;-76
2022/09/23 04:09:22;;;;;;;12.90;3.90;;;;;;;5.32;100.00;100384.91;104808;1274;74719;-75
2022/09/23 04:12:22;;;;;;;12.10;4.00;;;;;;;5.37;100.00;100381.00;104843;1274;69975;-75
2022/09/23 04:15:10;;;;;;;10.10;4.00;;;;;;;5.39;100.00;100381.06;104852;1274;73408;-76
2022/09/23 04:17:58;;;;;;;9.50;3.70;;;;;;;5.40;100.00;100382.55;105592;1275;59563;-77
2022/09/23 04:20:47;;;;;;;12.50;4.40;;;;;;;5.42;100.00;100384.77;105211;1271;60960;-78
2022/09/23 04:23:36;;;;;;;10.80;3.90;;;;;;;5.41;100.00;100383.39;105222;1271;72953;-78
2022/09/23 04:26:24;;;;;;;11.40;4.10;;;;;;;5.40;100.00;100380.13;105230;1271;68134;-78
2022/09/23 04:29:12;;;;;;;11.90;4.40;;;;;;;5.39;100.00;100382.80;104213;1271;1002977;-79
2022/09/23 04:32:01;;;;;;;12.10;4.50;;;;;;;5.38;100.00;100377.41;104997;1271;60371;-78
2022/09/23 04:34:49;;;;;;;10.90;5.00;;;;;;;5.39;100.00;100374.88;105367;1271;59602;-77
2022/09/23 04:37:37;;;;;;;14.60;4.90;;;;;;;5.40;100.00;100374.68;104978;1273;74724;-77
2022/09/23 04:40:28;;;;;;;11.70;4.20;;;;;;;5.41;100.00;100373.36;105024;1271;66714;-77
2022/09/23 04:43:22;;;;;;;10.50;4.50;;;;;;;5.45;100.00;100371.73;105158;1271;72180;-76
2022/09/23 04:46:13;;;;;;;11.40;4.10;;;;;;;5.50;100.00;100366.79;105070;1271;59681;-80
2022/09/23 04:49:02;;;;;;;10.30;3.80;;;;;;;5.53;100.00;100369.27;105323;1271;60127;-78
2022/09/23 04:51:50;;;;;;;11.10;3.80;;;;;;;5.54;100.00;100365.69;103766;1271;1003120;-79
2022/09/23 04:54:40;;;;;;;10.10;3.70;;;;;;;5.54;100.00;100365.83;105164;1271;66821;-79
2022/09/23 04:57:28;;;;;;;11.70;4.20;;;;;;;5.56;100.00;100369.96;105114;1274;72955;-79
2022/09/23 05:00:17;;;;;;;10.90;4.10;;;;;;;5.58;100.00;100372.30;104403;1271;1003158;-78
2022/09/23 05:03:06;;;;;;;9.00;3.90;;;;;;;5.61;100.00;100374.10;104974;1271;59733;-76
2022/09/23 05:05:58;;;;;;;8.50;3.10;;;;;;;5.65;100.00;100370.41;104864;1271;73287;-75
2022/09/23 05:08:50;;;;;;;8.40;2.80;;;;;;;5.69;100.00;100369.14;105356;1271;66807;-76
2022/09/23 05:11:38;;;;;;;7.70;2.50;;;;;;;5.74;100.00;100370.96;104980;1271;72776;-78
2022/09/23 05:14:26;;;;;;;7.80;2.70;;;;;;;5.80;100.00;100367.30;104875;1271;59727;-77
2022/09/23 05:17:14;;;;;;;7.50;2.90;;;;;;;5.87;100.00;100362.41;105357;1271;60246;-77
2022/09/23 05:20:03;;;;;;;7.60;2.80;;;;;;;5.93;100.00;100365.20;105003;1271;73393;-77
2022/09/23 05:22:54;;;;;;;7.50;2.60;;;;;;;6.00;100.00;100364.69;105076;1271;69608;-79
2022/09/23 05:25:44;;;;;;;9.60;2.70;;;;;;;6.08;100.00;100368.63;105491;1271;74327;-80
2022/09/23 05:28:34;;;;;;;6.50;2.60;;;;;;;6.14;100.00;100367.80;104996;1271;59727;-78
2022/09/23 05:31:26;;;;;;;7.70;3.30;;;;;;;6.22;100.00;100367.58;105276;1271;60622;-78
2022/09/23 05:34:14;;;;;;;8.60;2.40;;;;;;;6.29;100.00;100365.73;105292;1271;71992;-79
2022/09/23 05:37:03;;;;;;;7.30;2.40;;;;;;;6.37;100.00;100360.91;106162;1271;68207;-80
2022/09/23 05:39:51;;;;;;;7.20;2.80;;;;;;;6.46;99.99;100364.30;105552;1271;71669;-77
2022/09/23 05:42:40;;;;;;;6.80;2.60;;;;;;;6.56;100.00;100359.17;105242;1271;59703;-78
2022/09/23 05:45:30;;;;;;;8.50;3.00;;;;;;;6.65;99.80;100360.79;105348;1271;60486;-78
2022/09/23 05:48:19;;;;;;;8.00;2.50;;;;;;;6.74;99.92;100353.06;105013;1271;73037;-78
2022/09/23 05:51:23;;;;;;;7.60;2.50;;;;;;;6.84;100.00;100357.06;104997;1271;66700;-78
2022/09/23 05:54:18;;;;;;;8.80;3.00;;;;;;;6.95;99.89;100353.93;105415;1271;72987;-76
2022/09/23 05:57:06;;;;;;;8.50;3.00;;;;;;;7.08;99.79;100353.77;105194;1271;59659;-74
2022/09/23 05:59:54;;;;;;;13.40;6.10;;;;;;;7.19;99.47;100351.67;105177;1270;60468;-75
2022/09/23 06:02:42;;;;;;;9.60;4.10;;;;;;;7.33;99.50;100355.11;104986;1271;72957;-74
2022/09/23 06:05:30;;;;;;;7.30;2.50;;;;;;;7.46;98.95;100358.38;105104;1271;69704;-75
2022/09/23 06:08:18;;;;;;;7.10;2.20;;;;;;;7.57;98.51;100355.41;105536;1271;71884;-75
2022/09/23 06:11:07;;;;;;;8.30;2.40;;;;;;;7.68;97.65;100354.58;105179;1271;59556;-74
2022/09/23 06:14:13;;;;;;;9.00;3.30;;;;;;;7.81;97.36;100354.86;105203;1271;59643;-77
2022/09/23 06:17:01;;;;;;;6.90;2.60;;;;;;;7.92;96.87;100351.90;105251;1271;73291;-74
2022/09/23 06:19:52;;;;;;;9.80;2.20;;;;;;;8.03;96.53;100354.73;104960;1271;68027;-76
2022/09/23 06:22:40;;;;;;;8.20;2.70;;;;;;;8.14;95.66;100351.92;104994;1271;74494;-80
2022/09/23 06:25:29;;;;;;;7.50;2.30;;;;;;;8.27;95.38;100350.25;105500;1271;60099;-81
2022/09/23 06:28:16;;;;;;;6.50;2.20;;;;;;;8.41;94.56;100350.98;105273;1271;60296;-82
2022/09/23 06:31:15;;;;;;;6.50;2.40;;;;;;;8.56;93.53;100352.15;104971;1271;73133;-73
2022/09/23 06:34:03;;;;;;;7.40;2.50;;;;;;;8.74;92.55;100351.89;105183;1271;66791;-76
2022/09/23 06:36:59;;;;;;;6.40;2.30;;;;;;;8.94;92.17;100347.73;105217;1271;72601;-75
2022/09/23 06:39:58;;;;;;;7.80;2.30;;;;;;;9.14;91.45;100348.02;105231;1271;61249;-75
2022/09/23 06:42:47;;;;;;;6.70;2.10;;;;;;;9.36;90.63;100349.66;105614;1271;59546;-76
2022/09/23 06:45:38;;;;;;;6.80;2.00;;;;;;;9.79;89.60;100347.27;105154;1271;73258;-75
2022/09/23 06:48:27;;;;;;;7.20;2.20;;;;;;;11.30;88.05;100339.10;105135;1271;69886;-75
2022/09/23 06:51:20;;;;;;;6.10;1.70;;;;;;;13.60;78.14;100328.57;105238;1273;74319;-78
2022/09/23 06:54:08;;;;;;;6.70;1.70;;;;;;;15.73;68.18;100318.02;105168;1271;59684;-73
2022/09/23 06:56:56;;;;;;;6.30;1.90;;;;;;;17.53;63.79;100308.36;105276;1271;60425;-78
2022/09/23 06:59:45;;;;;;;7.30;2.70;;;;;;;19.09;56.04;100298.13;105062;1271;73093;-76
2022/09/23 07:02:33;;;;;;;6.50;1.90;;;;;;;20.46;52.16;100291.29;105398;1271;66949;-77
2022/09/23 07:05:21;;;;;;;5.90;1.50;;;;;;;21.64;47.30;100295.60;105209;1271;74451;-78
2022/09/23 07:08:11;;;;;;;5.70;1.60;;;;;;;22.67;44.23;100295.68;105112;1271;59990;-75
2022/09/23 07:11:04;;;;;;;5.40;1.50;;;;;;;23.64;43.27;100296.46;105128;1271;60599;-79
2022/09/23 07:13:52;;;;;;;5.90;1.60;;;;;;;24.55;39.26;100295.92;105045;1271;71913;-79
2022/09/23 07:16:40;;;;;;;6.60;1.50;;;;;;;25.24;37.05;100293.70;105039;1274;68044;-80
2022/09/23 07:19:29;;;;;;;6.10;1.30;;;;;;;25.76;36.15;100290.25;105117;1271;72756;-78
2022/09/23 07:22:17;;;;;;;5.60;1.30;;;;;;;26.30;35.15;100286.16;105078;1271;59790;-75
2022/09/23 07:25:06;;;;;;;6.50;1.50;;;;;;;26.71;33.45;100279.09;105421;1271;60976;-75
2022/09/23 07:27:55;;;;;;;5.70;1.20;;;;;;;27.11;32.23;100273.41;105221;1270;71967;-76
2022/09/23 07:30:44;;;;;;;6.40;1.40;;;;;;;27.40;31.59;100273.36;105263;1271;68121;-73
2022/09/23 07:33:46;;;;;;;6.80;1.50;;;;;;;27.76;30.98;100280.11;105500;1271;74422;-75
2022/09/23 07:36:36;;;;;;;5.10;1.30;;;;;;;28.00;30.57;100284.38;105190;1271;59647;-75
2022/09/23 07:39:25;;;;;;;6.00;1.30;;;;;;;28.30;29.87;100282.52;105478;1271;60302;-74
2022/09/23 07:42:13;;;;;;;4.50;1.00;;;;;;;28.46;29.32;100283.58;105175;1271;73159;-76
2022/09/23 07:45:01;;;;;;;4.20;1.00;;;;;;;28.70;28.94;100281.77;105208;1271;69977;-77
2022/09/23 07:47:49;;;;;;;5.80;1.10;;;;;;;28.75;28.55;100283.42;105159;1271;72847;-74
2022/09/23 07:50:39;;;;;;;4.70;1.20;;;;;;;28.91;28.33;100280.31;105469;1271;59767;-75
2022/09/23 07:53:29;;;;;;;5.00;1.10;;;;;;;29.16;27.99;100277.75;105590;1271;61768;-75
2022/09/23 07:56:19;;;;;;;4.90;1.10;;;;;;;29.54;27.77;100272.95;105267;1271;73976;-76
2022/09/23 07:59:14;;;;;;;6.00;1.20;;;;;;;29.97;27.06;100279.86;105501;1271;68581;-79
2022/09/23 08:02:02;;;;;;;5.70;1.40;;;;;;;30.20;26.39;100276.76;104986;1271;71708;-80
2022/09/23 08:04:50;;;;;;;5.20;1.00;;;;;;;30.14;26.08;100276.92;104990;1271;59740;-79
2022/09/23 08:07:38;;;;;;;5.50;1.10;;;;;;;30.31;26.39;100276.57;104974;1271;59671;-80
2022/09/23 08:10:26;;;;;;;5.40;1.00;;;;;;;30.31;26.05;100273.73;105054;1271;73035;-79
2022/09/23 08:13:14;;;;;;;6.00;0.90;;;;;;;30.50;26.07;100270.92;105342;1271;67952;-77
2022/09/23 08:16:03;;;;;;;5.30;1.00;;;;;;;30.68;25.78;100270.55;105044;1271;72844;-79
2022/09/23 08:18:51;;;;;;;11.60;3.10;;;;;;;30.97;25.27;100264.87;105351;1271;59563;-79
2022/09/23 08:21:40;;;;;;;6.10;1.50;;;;;;;31.18;24.55;100257.63;104956;1271;60511;-79
2022/09/23 08:24:31;;;;;;;4.40;0.90;;;;;;;31.15;24.13;100262.09;105068;1271;72968;-80
2022/09/23 08:27:18;;;;;;;4.60;0.80;;;;;;;30.61;24.72;100270.23;105136;1271;68671;-78
2022/09/23 08:30:08;;;;;;;4.20;0.90;;;;;;;30.49;25.06;100266.17;105189;1271;72847;-80
2022/09/23 08:32:56;;;;;;;5.10;0.80;;;;;;;29.60;25.70;100263.44;105277;1271;59687;-79
2022/09/23 08:35:44;;;;;;;3.90;1.00;;;;;;;29.25;26.62;100260.91;105140;1274;60383;-81
2022/09/23 08:38:32;;;;;;;4.70;0.90;;;;;;;29.99;25.44;100263.56;105301;1271;73334;-75
2022/09/23 08:41:35;;;;;;;5.20;1.00;;;;;;;29.69;25.80;100256.55;105656;1271;69090;-76
2022/09/23 08:44:53;;;;;;;5.00;0.90;;;;;;;29.25;25.76;100259.50;105164;1271;73326;-75
2022/09/23 08:48:05;;;;;;;4.90;1.10;;;;;;;27.70;27.43;100261.27;105254;1271;59634;-74
2022/09/23 08:51:10;;;;;;;5.80;1.00;;;;;;;26.21;29.74;100260.80;105504;1271;60783;-74
2022/09/23 08:53:58;;;;;;;6.60;1.40;;;;;;;25.16;31.40;100261.61;105170;1271;73112;-74
2022/09/23 08:56:51;;;;;;;6.10;1.10;;;;;;;24.21;32.55;100258.02;105609;1271;68810;-73
2022/09/23 08:59:42;;;;;;;4.80;1.10;;;;;;;23.18;34.21;100259.83;105151;1271;72951;-78
2022/09/23 09:02:34;;;;;;;5.30;1.20;;;;;;;22.22;35.76;100261.58;105206;1271;59558;-76
2022/09/23 09:05:27;;;;;;;4.60;1.20;;;;;;;21.38;37.59;100263.92;105184;1271;60921;-78
2022/09/23 09:08:24;;;;;;;5.50;1.20;;;;;;;20.74;39.14;100262.02;105211;1271;73240;-72
2022/09/23 09:11:15;;;;;;;5.70;1.20;;;;;;;20.21;40.42;100260.50;105169;1271;69634;-73
2022/09/23 09:14:38;;;;;;;5.00;1.30;;;;;;;19.78;41.71;100266.35;105427;1271;73371;-73
2022/09/23 09:18:21;;;;;;;4.80;1.10;;;;;;;19.31;42.86;100264.14;104991;1277;59871;-74
2022/09/23 09:21:14;;;;;;;6.40;1.50;;;;;;;18.91;43.94;100262.36;104763;1278;61854;-71
2022/09/23 09:24:35;;;;;;;6.50;1.60;;;;;;;18.66;45.26;100265.40;104438;1280;73408;-72
2022/09/23 09:27:24;;;;;;;6.10;1.40;;;;;;;18.37;45.92;100262.22;103989;1282;68340;-72
2022/09/23 09:30:13;;;;;;;5.60;1.40;;;;;;;18.16;46.36;100272.10;104312;1283;73792;-74
2022/09/23 09:33:16;;;;;;;6.60;1.40;;;;;;;17.96;47.08;100271.80;103996;1284;59799;-73
2022/09/23 09:36:42;;;;;;;6.40;1.50;;;;;;;17.77;47.47;100269.44;103888;1285;60999;-72
2022/09/23 09:39:30;;;;;;;6.10;1.30;;;;;;;17.58;47.25;100272.67;103919;1283;73797;-71
2022/09/23 09:42:25;;;;;;;5.00;1.30;;;;;;;17.41;47.65;100270.33;104201;1284;69552;-72
2022/09/23 09:46:01;;;;;;;5.00;1.10;;;;;;;17.36;47.94;100272.78;104140;1283;74640;-72
2022/09/23 09:48:58;;;;;;;4.40;1.00;;;;;;;17.35;47.92;100273.05;103972;1285;59798;-69
2022/09/23 09:51:46;;;;;;;4.60;1.30;;;;;;;17.53;47.79;100270.52;104035;1284;59849;-69
2022/09/23 09:54:34;;;;;;;4.90;1.10;;;;;;;17.77;46.54;100269.14;104464;1280;73892;-73
2022/09/23 09:57:36;;;;;;;4.60;1.20;;;;;;;17.83;45.69;100267.45;104885;1280;68770;-71
2022/09/23 10:00:25;;;;;;;4.90;1.10;;;;;;;18.06;44.89;100266.65;104887;1278;74569;-73
2022/09/23 10:03:13;;;;;;;4.60;1.20;;;;;;;18.35;44.80;100258.75;104698;1271;60341;-74
2022/09/23 10:06:21;;;;;;;6.00;1.50;;;;;;;18.63;44.56;100255.83;105200;1271;60483;-71
2022/09/23 10:09:14;;;;;;;6.10;1.80;;;;;;;19.39;43.30;100245.44;105309;1272;74745;-72
2022/09/23 10:12:25;;;;;;;5.60;1.40;;;;;;;20.13;41.74;100243.48;105075;1272;65896;-72
2022/09/23 10:15:42;;;;;;;5.70;1.30;;;;;;;21.29;39.78;100240.60;105484;1271;72613;-73
2022/09/23 10:18:38;;;;;;;4.60;1.30;;;;;;;22.57;36.91;100232.05;105236;1271;59772;-74
2022/09/23 10:21:35;;;;;;;5.00;1.30;;;;;;;23.37;35.92;100234.54;105048;1271;61726;-71
2022/09/23 10:24:29;;;;;;;4.90;1.10;;;;;;;23.79;35.10;100232.76;105026;1271;72541;-72
2022/09/23 10:27:30;;;;;;;5.60;1.30;;;;;;;23.73;34.78;100234.61;105201;1272;68257;-72
2022/09/23 10:30:27;;;;;;;5.10;1.20;;;;;;;23.59;33.78;100236.34;105040;1271;74271;-73
2022/09/23 10:33:26;;;;;;;7.50;1.80;;;;;;;23.18;35.41;100235.50;104954;1271;59681;-75
2022/09/23 10:36:17;;;;;;;5.80;1.70;;;;;;;22.74;35.82;100233.79;105017;1271;60949;-74
2022/09/23 10:46:44;;;;;;;8.30;1.30;;;;;;;21.73;37.39;100224.70;105168;1271;73477;-73
2022/09/23 10:49:42;;;;;;;4.60;1.10;;;;;;;22.26;37.06;100220.66;105093;1272;59773;-72
2022/09/23 10:53:01;;;;;;;5.50;1.20;;;;;;;22.64;36.55;100221.39;105059;1271;59566;-73
2022/09/23 10:56:21;;;;;;;4.60;1.00;;;;;;;22.38;35.72;100215.89;105292;1271;73957;-72
2022/09/23 10:59:39;;;;;;;5.30;1.30;;;;;;;22.21;36.18;100216.73;105307;1271;69128;-74
2022/09/23 11:03:23;;;;;;;5.50;1.30;;;;;;;21.95;36.45;100217.06;105008;1272;71643;-74
2022/09/23 11:06:17;;;;;;;5.50;1.20;;;;;;;21.71;37.26;100214.40;104705;1279;59720;-72
2022/09/23 11:10:06;;;;;;;4.60;1.20;;;;;;;21.48;36.61;100212.48;104331;1281;60411;-72
2022/09/23 11:13:43;;;;;;;4.90;1.10;;;;;;;21.62;37.73;100209.16;104469;1279;73606;-72
2022/09/23 11:16:47;;;;;;;5.20;1.20;;;;;;;22.02;36.98;100204.13;104399;1281;68353;-76
2022/09/23 11:20:20;;;;;;;4.70;1.20;;;;;;;21.95;36.90;100201.77;104727;1279;70313;-76
2022/09/23 11:23:39;;;;;;;5.90;1.20;;;;;;;21.65;37.30;100193.11;104539;1279;59670;-74
2022/09/23 11:27:05;;;;;;;5.20;1.20;;;;;;;21.46;37.62;100191.13;104668;1279;59781;-76
2022/09/23 11:30:21;;;;;;;7.90;1.30;;;;;;;21.29;38.12;100190.77;104600;1279;73227;-75
2022/09/23 11:33:12;;;;;;;7.00;2.40;;;;;;;21.06;38.46;100187.09;104657;1279;68112;-76
2022/09/23 11:36:39;;;;;;;6.00;1.40;;;;;;;20.76;38.40;100187.08;104531;1279;73004;-75
2022/09/23 11:39:36;;;;;;;5.00;1.20;;;;;;;20.39;38.64;100178.36;104658;1279;59649;-75
2022/09/23 11:42:32;;;;;;;4.90;1.20;;;;;;;20.19;38.50;100177.59;104545;1274;62443;-75
2022/09/23 11:45:32;;;;;;;5.20;1.30;;;;;;;20.00;38.89;100178.23;105033;1271;74648;-77
2022/09/23 11:48:56;;;;;;;4.90;1.10;;;;;;;19.75;39.94;100174.58;105138;1271;68199;-75
2022/09/23 11:51:55;;;;;;;4.90;1.20;;;;;;;19.41;40.86;100179.73;105241;1271;74000;-75
2022/09/23 11:55:11;;;;;;;4.60;0.90;;;;;;;19.16;41.41;100179.48;105323;1271;59688;-75
2022/09/23 11:58:18;;;;;;;5.90;1.50;;;;;;;19.12;40.92;100175.95;105477;1271;60967;-76
2022/09/23 12:01:44;;;;;;;4.90;1.20;;;;;;;19.50;39.42;100175.23;105297;1271;74651;-77
2022/09/23 12:04:41;;;;;;;4.00;1.00;;;;;;;19.70;38.84;100170.34;104985;1271;67751;-76
2022/09/23 12:08:29;;;;;;;4.10;0.80;;;;;;;20.47;38.20;100161.76;105192;1271;70745;-75
2022/09/23 12:11:45;;;;;;;4.50;1.10;;;;;;;20.89;38.26;100161.46;105125;1271;59660;-74
2022/09/23 12:14:58;;;;;;;7.10;1.20;;;;;;;20.72;36.55;100158.48;105127;1271;61047;-75
2022/09/23 12:18:26;;;;;;;4.10;1.10;;;;;;;20.51;37.59;100153.16;105232;1271;73600;-76
2022/09/23 12:21:26;;;;;;;4.60;0.90;;;;;;;20.52;37.22;100152.20;105403;1271;67533;-76
2022/09/23 12:24:58;;;;;;;4.80;1.00;;;;;;;20.31;37.36;100144.91;105354;1271;74267;-75
2022/09/23 12:27:50;;;;;;;6.30;1.10;;;;;;;20.19;37.12;100147.77;105368;1271;59567;-75
2022/09/23 12:30:40;;;;;;;5.20;0.90;;;;;;;20.12;37.62;100146.77;105197;1271;61796;-75
2022/09/23 12:33:32;;;;;;;4.60;0.90;;;;;;;19.98;37.81;100143.86;105463;1271;73486;-75
2022/09/23 12:36:35;;;;;;;3.70;1.00;;;;;;;19.76;38.40;100144.38;105184;1271;69552;-77
2022/09/23 12:39:36;;;;;;;4.50;0.90;;;;;;;19.65;38.91;100143.48;105315;1271;71247;-76
2022/09/23 12:42:24;;;;;;;4.10;1.00;;;;;;;19.58;39.01;100142.69;105183;1271;59882;-74
2022/09/23 12:45:33;;;;;;;5.10;1.00;;;;;;;19.59;39.87;100143.48;105205;1271;60517;-77
2022/09/23 12:48:43;;;;;;;4.50;0.90;;;;;;;19.59;39.47;100146.32;105136;1271;72354;-73
2022/09/23 12:51:33;;;;;;;5.50;1.60;;;;;;;19.41;40.17;100146.98;105154;1271;66753;-76
2022/09/23 12:54:23;;;;;;;5.70;1.50;;;;;;;19.20;41.14;100146.29;104984;1271;74572;-75
2022/09/23 12:57:33;;;;;;;6.10;1.20;;;;;;;18.95;40.31;100144.52;105336;1271;59675;-73
2022/09/23 13:00:25;;;;;;;6.10;1.80;;;;;;;18.64;40.90;100142.35;105163;1271;60898;-72
2022/09/23 13:06:40;;;;;;;9.50;1.30;;;;;;;18.09;42.31;100134.91;105131;1269;69745;-75
2022/09/23 13:09:36;;;;;;;4.90;0.90;;;;;;;17.83;42.67;100132.83;105273;1271;74523;-76
2022/09/23 13:12:35;;;;;;;4.70;1.20;;;;;;;17.61;42.72;100129.00;105244;1271;178212;-77
2022/09/23 13:15:35;;;;;;;4.70;1.10;;;;;;;17.37;42.98;100133.52;105149;1271;60581;-76
2022/09/23 13:18:53;;;;;;;4.70;1.10;;;;;;;17.23;44.39;100132.73;105480;1271;72850;-77
2022/09/23 13:21:41;;;;;;;5.80;1.30;;;;;;;17.05;44.96;100126.18;105429;1271;68132;-77
2022/09/23 13:24:53;;;;;;;5.20;1.10;;;;;;;16.91;45.52;100124.92;105366;1271;71473;-76
2022/09/23 13:27:46;;;;;;;8.00;1.50;;;;;;;16.75;45.99;100124.33;105407;1271;59691;-76
2022/09/23 13:30:34;;;;;;;5.80;1.40;;;;;;;16.62;46.31;100122.59;105192;1271;59548;-78
2022/09/23 13:34:01;;;;;;;5.10;1.30;;;;;;;16.49;46.67;100122.84;104951;1271;73238;-77
2022/09/23 13:36:52;;;;;;;5.00;1.30;;;;;;;16.36;47.17;100125.79;105007;1271;68157;-77
2022/09/23 13:39:42;;;;;;;7.40;3.20;;;;;;;16.25;48.54;100127.30;105112;1271;73103;-78
2022/09/23 13:42:39;;;;;;;6.70;2.30;;;;;;;16.09;49.36;100123.61;105159;1271;59774;-77
2022/09/23 13:45:32;;;;;;;5.50;1.70;;;;;;;15.98;49.40;100119.39;105498;1271;60615;-79
2022/09/23 13:48:24;;;;;;;6.70;1.50;;;;;;;15.86;49.38;100115.01;105079;1271;73333;-78
2022/09/23 13:51:34;;;;;;;7.50;2.10;;;;;;;15.77;50.64;100112.50;105415;1271;66799;-77